createdAt,value
2022-09-20T00:01:23.987Z,13.30
2022-09-20T00:03:57.331Z,13.30
2022-09-20T00:06:28.492Z,13.30
2022-09-20T00:08:56.608Z,13.20
2022-09-20T00:11:29.855Z,13.30
2022-09-20T00:13:58.978Z,13.30
2022-09-20T00:16:29.376Z,13.40
2022-09-20T00:18:58.621Z,13.40
2022-09-20T00:21:30.404Z,13.30
2022-09-20T00:23:58.203Z,13.30
2022-09-20T00:26:26.708Z,13.40
2022-09-20T00:28:54.003Z,13.40
2022-09-20T00:31:21.124Z,13.30
2022-09-20T00:34:06.641Z,13.40
2022-09-20T00:36:33.799Z,13.40
2022-09-20T00:39:02.276Z,13.40
2022-09-20T00:41:30.333Z,13.40
2022-09-20T00:43:59.130Z,13.50
2022-09-20T00:46:43.635Z,13.50
2022-09-20T00:49:26.208Z,13.50
2022-09-20T00:52:00.980Z,13.40
2022-09-20T00:54:30.391Z,13.40
2022-09-20T00:56:57.947Z,13.50
2022-09-20T00:59:34.950Z,13.40
2022-09-20T01:02:30.986Z,13.30
2022-09-20T01:04:58.759Z,13.40
2022-09-20T01:07:26.811Z,13.30
2022-09-20T01:09:53.701Z,13.30
2022-09-20T01:12:27.733Z,13.30
2022-09-20T01:14:56.280Z,13.30
2022-09-20T01:17:26.050Z,13.30
2022-09-20T01:20:11.476Z,13.30
2022-09-20T01:22:59.723Z,13.30
2022-09-20T01:25:41.995Z,13.40
2022-09-20T01:28:08.977Z,13.30
2022-09-20T01:31:06.022Z,13.30
2022-09-20T01:33:59.158Z,13.40
2022-09-20T01:36:35.107Z,13.40
2022-09-20T01:39:33.520Z,13.30
2022-09-20T01:42:08.127Z,13.30
2022-09-20T01:45:16.569Z,13.40
2022-09-20T01:47:55.644Z,13.30
2022-09-20T01:51:06.970Z,13.30
2022-09-20T01:53:56.957Z,13.20
2022-09-20T01:56:53.785Z,13.10
2022-09-20T01:59:38.224Z,13.10
2022-09-20T02:02:19.779Z,13.00
2022-09-20T02:04:58.871Z,13.00
2022-09-20T02:07:25.979Z,13.10
2022-09-20T02:10:44.584Z,13.10
2022-09-20T02:13:29.302Z,13.10
2022-09-20T02:16:42.004Z,13.20
2022-09-20T02:19:55.212Z,13.20
2022-09-20T02:22:58.434Z,13.20
2022-09-20T02:25:52.980Z,13.30
2022-09-20T02:28:22.902Z,13.30
2022-09-20T02:31:01.530Z,13.30
2022-09-20T02:33:43.643Z,13.30
2022-09-20T02:36:37.039Z,13.40
2022-09-20T02:39:26.796Z,13.30
2022-09-20T02:42:04.006Z,13.30
2022-09-20T02:44:55.602Z,13.30
2022-09-20T02:47:39.851Z,13.40
2022-09-20T02:50:19.702Z,13.30
2022-09-20T02:53:11.274Z,13.40
2022-09-20T02:55:53.027Z,13.30
2022-09-20T02:58:38.843Z,13.30
2022-09-20T03:01:05.801Z,13.30
2022-09-20T03:03:59.101Z,13.30
2022-09-20T03:07:02.809Z,13.30
2022-09-20T03:09:43.182Z,13.30
2022-09-20T03:12:09.933Z,13.30
2022-09-20T03:15:06.114Z,13.30
2022-09-20T03:17:51.783Z,13.30
2022-09-20T03:20:35.828Z,13.20
2022-09-20T03:23:20.538Z,13.30
2022-09-20T03:25:47.914Z,13.30
2022-09-20T03:28:59.743Z,13.20
2022-09-20T03:31:32.461Z,13.30
2022-09-20T03:34:24.284Z,13.30
2022-09-20T03:37:01.117Z,13.30
2022-09-20T03:39:38.236Z,13.20
2022-09-20T03:42:17.561Z,13.30
2022-09-20T03:45:05.791Z,13.30
2022-09-20T03:48:09.658Z,13.30
2022-09-20T03:51:14.965Z,13.30
2022-09-20T03:53:57.178Z,13.30
2022-09-20T03:56:30.248Z,13.30
2022-09-20T03:59:24.858Z,13.30
2022-09-20T04:02:10.519Z,13.30
2022-09-20T04:04:46.966Z,13.30
2022-09-20T04:07:46.358Z,13.40
2022-09-20T04:10:45.476Z,13.30
2022-09-20T04:13:36.905Z,13.30
2022-09-20T04:16:33.944Z,13.30
2022-09-20T04:19:23.787Z,13.30
2022-09-20T04:21:58.802Z,13.30
2022-09-20T04:24:28.987Z,13.30
2022-09-20T04:27:06.135Z,13.30
2022-09-20T04:29:57.560Z,13.30
2022-09-20T04:32:42.863Z,13.30
2022-09-20T04:36:06.910Z,13.30
2022-09-20T04:38:35.788Z,13.30
2022-09-20T04:41:05.802Z,13.30
2022-09-20T04:43:41.857Z,13.30
2022-09-20T04:46:46.366Z,13.30
2022-09-20T04:49:37.925Z,13.30
2022-09-20T04:52:07.809Z,13.30
2022-09-20T04:55:12.274Z,13.20
2022-09-20T04:57:57.886Z,13.30
2022-09-20T05:00:27.152Z,13.30
2022-09-20T05:03:03.181Z,13.30
2022-09-20T05:05:57.358Z,13.30
2022-09-20T05:08:27.044Z,13.30
2022-09-20T05:11:36.675Z,13.30
2022-09-20T05:14:48.992Z,13.40
2022-09-20T05:17:33.648Z,13.30
2022-09-20T05:20:38.116Z,13.40
2022-09-20T05:23:13.625Z,13.30
2022-09-20T05:26:08.669Z,13.30
2022-09-20T05:28:44.723Z,13.40
2022-09-20T05:31:48.786Z,13.40
2022-09-20T05:34:33.888Z,13.30
2022-09-20T05:37:35.983Z,13.30
2022-09-20T05:40:31.358Z,13.30
2022-09-20T05:43:12.771Z,13.30
2022-09-20T05:45:59.223Z,13.30
2022-09-20T05:48:50.823Z,13.30
2022-09-20T05:51:42.773Z,13.30
2022-09-20T05:54:18.647Z,13.30
2022-09-20T05:57:23.577Z,13.30
2022-09-20T06:00:17.035Z,13.30
2022-09-20T06:02:55.614Z,13.30
2022-09-20T06:05:50.841Z,13.30
2022-09-20T06:08:29.678Z,13.40
2022-09-20T06:11:28.274Z,13.40
2022-09-20T06:14:15.215Z,13.40
2022-09-20T06:16:59.372Z,13.40
2022-09-20T06:19:36.658Z,13.40
2022-09-20T06:22:22.230Z,13.50
2022-09-20T06:24:56.355Z,13.40
2022-09-20T06:27:40.019Z,13.40
2022-09-20T06:30:15.179Z,13.50
2022-09-20T06:33:07.989Z,13.40
2022-09-20T06:35:43.363Z,13.50
2022-09-20T06:39:01.813Z,13.50
2022-09-20T06:41:32.880Z,13.50
2022-09-20T06:44:05.559Z,13.50
2022-09-20T06:46:35.718Z,13.40
2022-09-20T06:49:04.256Z,13.50
2022-09-20T06:51:36.146Z,13.60
2022-09-20T06:54:03.424Z,13.50
2022-09-20T06:56:36.780Z,13.60
2022-09-20T06:59:06.067Z,13.60
2022-09-20T07:01:33.162Z,13.60
2022-09-20T07:04:00.200Z,13.50
2022-09-20T07:06:27.417Z,13.60
2022-09-20T07:08:54.309Z,13.50
2022-09-20T07:11:23.153Z,13.50
2022-09-20T07:13:52.662Z,13.60
2022-09-20T07:16:20.578Z,13.50
2022-09-20T07:18:48.643Z,13.60
2022-09-20T07:21:17.841Z,13.60
2022-09-20T07:23:45.898Z,13.60
2022-09-20T07:26:31.953Z,13.50
2022-09-20T07:29:00.680Z,13.60
2022-09-20T07:31:29.333Z,13.60
2022-09-20T07:33:56.604Z,13.60
2022-09-20T07:36:23.887Z,13.60
2022-09-20T07:38:53.064Z,13.70
2022-09-20T07:41:22.949Z,13.70
2022-09-20T07:43:51.090Z,13.60
2022-09-20T07:46:20.758Z,13.60
2022-09-20T07:48:47.651Z,13.70
2022-09-20T07:51:14.602Z,13.60
2022-09-20T07:53:41.923Z,13.60
2022-09-20T07:56:13.486Z,13.60
2022-09-20T07:58:41.884Z,13.60
2022-09-20T08:01:11.366Z,13.60
2022-09-20T08:03:38.786Z,13.50
2022-09-20T08:06:08.966Z,13.50
2022-09-20T08:08:37.712Z,13.40
2022-09-20T08:11:10.448Z,13.40
2022-09-20T08:16:27.780Z,13.30
2022-09-20T08:18:59.601Z,13.30
2022-09-20T08:21:31.610Z,13.40
2022-09-20T08:23:59.934Z,13.40
2022-09-20T08:26:28.815Z,13.40
2022-09-20T08:28:57.820Z,13.40
2022-09-20T08:31:27.504Z,13.50
2022-09-20T08:33:55.032Z,13.50
2022-09-20T08:36:26.039Z,13.50
2022-09-20T08:41:54.549Z,13.50
2022-09-20T08:44:45.039Z,13.50
2022-09-20T08:47:18.210Z,13.40
2022-09-20T08:49:46.601Z,13.40
2022-09-20T08:52:37.304Z,13.40
2022-09-20T08:55:16.698Z,13.40
2022-09-20T08:57:49.143Z,13.40
2022-09-20T09:00:19.487Z,13.50
2022-09-20T09:02:47.147Z,13.50
2022-09-20T09:05:28.330Z,13.50
2022-09-20T09:07:55.387Z,13.50
2022-09-20T09:10:22.314Z,13.50
2022-09-20T09:12:49.883Z,13.50
2022-09-20T09:15:30.083Z,13.50
2022-09-20T09:17:57.129Z,13.50
2022-09-20T09:20:25.126Z,13.50
2022-09-20T09:23:08.998Z,13.70
2022-09-20T09:25:39.253Z,13.80
2022-09-20T09:28:08.959Z,13.80
2022-09-20T09:30:44.697Z,13.80
2022-09-20T09:33:34.065Z,13.90
2022-09-20T09:36:03.828Z,13.90
2022-09-20T09:38:33.842Z,14.00
2022-09-20T09:41:03.212Z,14.00
2022-09-20T09:43:35.373Z,14.00
2022-09-20T09:46:23.938Z,13.90
2022-09-20T09:49:13.341Z,14.00
2022-09-20T09:51:43.086Z,14.00
2022-09-20T09:54:17.908Z,14.10
2022-09-20T09:57:02.570Z,14.00
2022-09-20T09:59:35.782Z,14.00
2022-09-20T10:02:32.142Z,14.10
2022-09-20T10:05:00.517Z,14.10
2022-09-20T10:07:46.772Z,14.10
2022-09-20T10:10:23.725Z,14.10
2022-09-20T10:13:27.162Z,13.90
2022-09-20T10:16:32.857Z,13.80
2022-09-20T10:19:40.655Z,13.70
2022-09-20T10:22:34.980Z,13.50
2022-09-20T10:25:55.783Z,13.50
2022-09-20T10:28:48.578Z,13.40
2022-09-20T10:31:55.042Z,13.40
2022-09-20T10:34:21.912Z,13.40
2022-09-20T10:36:53.727Z,13.40
2022-09-20T10:39:29.342Z,13.40
2022-09-20T10:42:46.796Z,13.50
2022-09-20T10:46:08.402Z,13.50
2022-09-20T10:48:35.798Z,13.50
2022-09-20T10:51:25.186Z,13.60
2022-09-20T10:54:18.203Z,13.60
2022-09-20T10:56:50.569Z,13.70
2022-09-20T10:59:35.930Z,13.80
2022-09-20T11:02:15.055Z,13.90
2022-09-20T11:04:54.076Z,13.90
2022-09-20T11:07:32.674Z,13.80
2022-09-20T11:10:25.530Z,13.70
2022-09-20T11:13:02.310Z,13.60
2022-09-20T11:15:54.527Z,13.50
2022-09-20T11:18:50.860Z,13.40
2022-09-20T11:22:02.969Z,13.30
2022-09-20T11:24:42.890Z,13.30
2022-09-20T11:27:29.662Z,13.20
2022-09-20T11:30:02.030Z,13.20
2022-09-20T11:32:42.473Z,13.20
2022-09-20T11:35:14.766Z,13.20
2022-09-20T11:38:02.843Z,13.20
2022-09-20T11:40:40.856Z,13.20
2022-09-20T11:43:09.690Z,13.20
2022-09-20T11:45:39.056Z,13.30
2022-09-20T11:48:09.858Z,13.30
2022-09-20T11:51:04.532Z,13.40
2022-09-20T11:54:10.693Z,13.50
2022-09-20T11:56:39.329Z,13.40
2022-09-20T11:59:22.893Z,13.50
2022-09-20T12:01:56.872Z,13.60
2022-09-20T12:04:32.947Z,13.60
2022-09-20T12:07:40.217Z,13.60
2022-09-20T12:10:23.516Z,13.70
2022-09-20T12:13:05.792Z,13.70
2022-09-20T12:15:40.535Z,13.90
2022-09-20T12:18:31.200Z,13.90
2022-09-20T12:21:07.335Z,13.90
2022-09-20T12:23:41.513Z,14.10
2022-09-20T12:26:22.015Z,14.20
2022-09-20T12:28:50.237Z,14.30
2022-09-20T12:31:25.999Z,14.30
2022-09-20T12:34:02.221Z,14.50
2022-09-20T12:36:34.403Z,14.50
2022-09-20T12:39:11.475Z,14.60
2022-09-20T12:41:58.077Z,14.60
2022-09-20T12:44:36.319Z,14.60
2022-09-20T12:47:06.477Z,14.10
2022-09-20T12:49:59.833Z,13.50
2022-09-20T12:52:50.645Z,13.20
2022-09-20T12:55:49.995Z,12.90
2022-09-20T12:58:22.985Z,12.80
2022-09-20T13:00:57.578Z,12.70
2022-09-20T13:03:46.941Z,12.60
2022-09-20T13:06:19.987Z,12.60
2022-09-20T13:09:01.618Z,12.60
2022-09-20T13:11:45.796Z,12.60
2022-09-20T13:14:21.950Z,12.60
2022-09-20T13:16:59.034Z,12.60
2022-09-20T13:19:46.566Z,12.60
2022-09-20T13:22:28.246Z,12.70
2022-09-20T13:25:00.333Z,12.70
2022-09-20T13:27:34.743Z,12.80
2022-09-20T13:30:17.561Z,12.90
2022-09-20T13:32:44.738Z,13.10
2022-09-20T13:35:24.038Z,13.10
2022-09-20T13:37:55.674Z,13.10
2022-09-20T13:40:35.670Z,13.30
2022-09-20T13:43:23.218Z,13.30
2022-09-20T13:45:57.633Z,13.30
2022-09-20T13:48:29.414Z,13.50
2022-09-20T13:50:57.435Z,13.50
2022-09-20T13:53:42.397Z,13.70
2022-09-20T13:56:21.900Z,13.80
2022-09-20T13:58:50.267Z,13.70
2022-09-20T14:01:30.548Z,13.60
2022-09-20T14:04:18.644Z,13.80
2022-09-20T14:06:45.978Z,13.70
2022-09-20T14:09:39.933Z,13.70
2022-09-20T14:12:07.946Z,13.60
2022-09-20T14:14:35.760Z,13.60
2022-09-20T14:17:06.628Z,13.70
2022-09-20T14:19:40.533Z,13.60
2022-09-20T14:22:08.246Z,13.60
2022-09-20T14:24:37.251Z,13.60
2022-09-20T14:27:22.639Z,13.60
2022-09-20T14:29:55.042Z,13.60
2022-09-20T14:32:39.628Z,13.60
2022-09-20T14:35:12.501Z,13.40
2022-09-20T14:37:55.784Z,13.40
2022-09-20T14:40:31.779Z,13.40
2022-09-20T14:43:06.529Z,13.40
2022-09-20T14:45:39.729Z,13.40
2022-09-20T14:48:11.377Z,13.40
2022-09-20T14:50:40.131Z,13.40
2022-09-20T14:53:23.095Z,13.40
2022-09-20T14:55:57.778Z,13.50
2022-09-20T14:58:26.377Z,13.60
2022-09-20T15:01:08.147Z,13.60
2022-09-20T15:03:42.051Z,13.70
2022-09-20T15:06:13.656Z,13.70
2022-09-20T15:08:46.151Z,13.80
2022-09-20T15:11:19.774Z,13.80
2022-09-20T15:13:46.950Z,13.70
2022-09-20T15:16:15.209Z,13.80
2022-09-20T15:18:43.906Z,13.80
2022-09-20T15:21:11.520Z,13.80
2022-09-20T15:23:39.446Z,13.80
2022-09-20T15:26:07.448Z,13.80
2022-09-20T15:28:34.695Z,13.80
2022-09-20T15:31:01.871Z,13.80
2022-09-20T15:33:32.041Z,13.80
2022-09-20T15:35:59.634Z,13.70
2022-09-20T15:38:29.256Z,13.80
2022-09-20T15:40:56.153Z,13.70
2022-09-20T15:43:26.338Z,13.80
2022-09-20T15:46:32.789Z,13.80
2022-09-20T15:49:02.765Z,13.80
2022-09-20T15:51:30.592Z,13.80
2022-09-20T15:54:01.717Z,13.90
2022-09-20T15:56:31.758Z,13.90
2022-09-20T15:59:04.207Z,13.90
2022-09-20T16:01:32.843Z,13.90
2022-09-20T16:04:00.451Z,13.90
2022-09-20T16:06:27.486Z,13.90
2022-09-20T16:08:55.789Z,13.90
2022-09-20T16:11:23.322Z,13.90
2022-09-20T16:13:54.750Z,13.90
2022-09-20T16:16:21.889Z,14.00
2022-09-20T16:19:07.685Z,14.00
2022-09-20T16:21:36.658Z,14.00
2022-09-20T16:24:05.379Z,14.00
2022-09-20T16:26:34.495Z,14.10
2022-09-20T16:29:05.011Z,14.10
2022-09-20T16:31:41.452Z,14.10
2022-09-20T16:34:19.444Z,14.00
2022-09-20T16:36:51.470Z,14.00
2022-09-20T16:39:19.794Z,14.10
2022-09-20T16:41:48.788Z,14.10
2022-09-20T16:44:16.242Z,14.10
2022-09-20T16:46:44.583Z,14.10
2022-09-20T16:49:13.158Z,14.10
2022-09-20T16:51:42.577Z,14.10
2022-09-20T16:54:15.106Z,14.10
2022-09-20T16:56:45.039Z,14.20
2022-09-20T16:59:12.931Z,14.20
2022-09-20T17:01:40.683Z,14.20
2022-09-20T17:04:08.338Z,14.20
2022-09-20T17:06:37.880Z,14.20
2022-09-20T17:09:06.659Z,14.30
2022-09-20T17:11:39.664Z,14.20
2022-09-20T17:14:07.876Z,14.30
2022-09-20T17:16:37.430Z,14.30
2022-09-20T17:19:07.482Z,14.30
2022-09-20T17:21:36.802Z,14.30
2022-09-20T17:24:05.948Z,14.20
2022-09-20T17:26:38.860Z,14.20
2022-09-20T17:29:07.555Z,14.20
2022-09-20T17:31:37.824Z,14.10
2022-09-20T17:34:07.822Z,14.20
2022-09-20T17:36:39.184Z,14.10
2022-09-20T17:39:08.712Z,14.10
2022-09-20T17:41:36.649Z,14.20
2022-09-20T17:44:12.165Z,14.20
2022-09-20T17:46:41.470Z,14.20
2022-09-20T17:49:11.321Z,14.20
2022-09-20T17:51:44.130Z,14.10
2022-09-20T17:54:14.439Z,14.10
2022-09-20T17:56:43.618Z,14.10
2022-09-20T17:59:15.686Z,14.10
2022-09-20T18:01:44.628Z,14.00
2022-09-20T18:04:12.247Z,13.90
2022-09-20T18:06:42.349Z,13.90
2022-09-20T18:09:12.099Z,13.80
2022-09-20T18:11:42.461Z,13.80
2022-09-20T18:14:10.732Z,13.50
2022-09-20T18:16:38.462Z,13.40
2022-09-20T18:19:07.248Z,13.30
2022-09-20T18:21:36.118Z,13.20
2022-09-20T18:24:05.940Z,13.10
2022-09-20T18:26:33.801Z,13.00
2022-09-20T18:29:12.513Z,12.90
2022-09-20T18:31:46.983Z,12.90
2022-09-20T18:34:19.197Z,12.80
2022-09-20T18:36:54.561Z,12.70
2022-09-20T18:39:26.764Z,12.70
2022-09-20T18:41:54.481Z,12.60
2022-09-20T18:44:22.822Z,12.60
2022-09-20T18:46:55.171Z,12.60
2022-09-20T18:49:22.911Z,12.60
2022-09-20T18:51:50.430Z,12.60
2022-09-20T18:54:19.025Z,12.70
2022-09-20T18:56:48.540Z,12.70
2022-09-20T18:59:21.040Z,12.70
2022-09-20T19:01:52.780Z,12.60
2022-09-20T19:04:44.348Z,12.50
2022-09-20T19:07:29.841Z,12.50
2022-09-20T19:10:18.335Z,12.40
2022-09-20T19:12:57.130Z,12.30
2022-09-20T19:16:05.928Z,12.30
2022-09-20T19:19:10.358Z,12.20
2022-09-20T19:21:52.473Z,12.20
2022-09-20T19:24:42.275Z,12.20
2022-09-20T19:27:13.959Z,12.20
2022-09-20T19:29:41.536Z,12.10
2022-09-20T19:32:17.241Z,12.10
2022-09-20T19:34:45.693Z,12.20
2022-09-20T19:37:27.526Z,12.20
2022-09-20T19:39:57.406Z,12.20
2022-09-20T19:43:03.168Z,12.20
2022-09-20T19:45:32.877Z,12.20
2022-09-20T19:48:24.500Z,12.30
2022-09-20T19:50:55.198Z,12.30
2022-09-20T19:53:27.722Z,12.30
2022-09-20T19:56:03.527Z,12.40
2022-09-20T19:58:30.798Z,12.30
2022-09-20T20:00:58.366Z,12.40
2022-09-20T20:03:27.531Z,12.40
2022-09-20T20:06:19.052Z,12.30
2022-09-20T20:08:55.059Z,12.40
2022-09-20T20:11:55.397Z,12.40
2022-09-20T20:14:40.759Z,12.30
2022-09-20T20:17:26.668Z,12.30
2022-09-20T20:20:11.777Z,12.30
2022-09-20T20:23:16.291Z,12.20
2022-09-20T20:25:43.204Z,12.10
2022-09-20T20:28:10.186Z,12.10
2022-09-20T20:30:37.302Z,12.00
2022-09-20T20:33:05.947Z,12.00
2022-09-20T20:35:33.084Z,12.00
2022-09-20T20:37:59.940Z,12.00
2022-09-20T20:40:28.191Z,12.00
2022-09-20T20:43:01.955Z,12.00
2022-09-20T20:45:30.125Z,12.00
2022-09-20T20:48:00.343Z,12.00
2022-09-20T20:50:29.474Z,11.90
2022-09-20T20:52:57.289Z,11.80
2022-09-20T20:55:24.881Z,11.80
2022-09-20T20:57:58.204Z,11.70
2022-09-20T21:00:27.016Z,11.80
2022-09-20T21:02:58.474Z,11.70
2022-09-20T21:05:26.557Z,11.70
2022-09-20T21:07:54.777Z,11.70
2022-09-20T21:10:23.780Z,11.70
2022-09-20T21:12:53.788Z,11.60
2022-09-20T21:15:21.489Z,11.60
2022-09-20T21:17:55.059Z,11.60
2022-09-20T21:20:22.194Z,11.70
2022-09-20T21:22:49.113Z,11.60
2022-09-20T21:25:16.156Z,11.60
2022-09-20T21:27:43.031Z,11.60
2022-09-20T21:30:10.498Z,11.50
2022-09-20T21:32:37.455Z,11.40
2022-09-20T21:35:04.728Z,11.50
2022-09-20T21:37:31.624Z,11.40
2022-09-20T21:39:58.565Z,11.40
2022-09-20T21:42:27.239Z,11.30
2022-09-20T21:44:54.198Z,11.20
2022-09-20T21:47:21.082Z,11.30
2022-09-20T21:49:47.982Z,11.20
2022-09-20T21:52:14.869Z,11.30
2022-09-20T21:54:43.132Z,11.20
2022-09-20T21:57:13.656Z,11.20
2022-09-20T21:59:40.859Z,11.20
2022-09-20T22:02:07.787Z,11.10
2022-09-20T22:04:35.604Z,11.10
2022-09-20T22:07:04.485Z,11.20
2022-09-20T22:09:31.474Z,11.10
2022-09-20T22:11:58.511Z,11.20
2022-09-20T22:14:25.498Z,11.10
2022-09-20T22:16:52.948Z,11.10
2022-09-20T22:19:20.554Z,11.00
2022-09-20T22:21:49.715Z,10.90
2022-09-20T22:24:17.620Z,10.90
2022-09-20T22:26:50.002Z,10.90
2022-09-20T22:29:17.588Z,10.90
2022-09-20T22:31:46.535Z,10.90
2022-09-20T22:34:21.813Z,10.80
2022-09-20T22:36:49.290Z,10.70
2022-09-20T22:39:17.154Z,10.70
2022-09-20T22:41:44.865Z,10.70
2022-09-20T22:44:11.826Z,10.70
2022-09-20T22:46:39.105Z,10.70
2022-09-20T22:49:07.788Z,10.80
2022-09-20T22:51:35.384Z,10.80
2022-09-20T22:54:08.066Z,10.70
2022-09-20T22:56:36.242Z,10.70
2022-09-20T22:59:09.161Z,10.80
2022-09-20T23:01:42.348Z,10.70
2022-09-20T23:04:18.278Z,10.60
2022-09-20T23:06:47.938Z,10.60
2022-09-20T23:09:17.814Z,10.60
2022-09-20T23:11:45.466Z,10.60
2022-09-20T23:14:15.661Z,10.50
2022-09-20T23:16:42.935Z,10.40
2022-09-20T23:19:12.956Z,10.40
2022-09-20T23:21:41.215Z,10.50
2022-09-20T23:24:11.104Z,10.40
2022-09-20T23:26:40.066Z,10.40
2022-09-20T23:29:15.369Z,10.40
2022-09-20T23:31:46.103Z,10.40
2022-09-20T23:34:15.375Z,10.40
2022-09-20T23:36:43.069Z,10.40
2022-09-20T23:39:11.735Z,10.40
2022-09-20T23:41:39.352Z,10.40
2022-09-20T23:44:09.713Z,10.40
2022-09-20T23:46:36.770Z,10.30
2022-09-20T23:49:03.899Z,10.30
2022-09-20T23:51:32.557Z,10.30
2022-09-20T23:53:59.556Z,10.40
2022-09-20T23:56:27.504Z,10.30
2022-09-20T23:58:54.755Z,10.20
